createdAt,value
2023-01-22T00:01:11.969Z,42.50
2023-01-22T00:04:14.388Z,42.40
2023-01-22T00:07:16.447Z,42.60
2023-01-22T00:10:17.950Z,43.50
2023-01-22T00:13:19.562Z,42.40
2023-01-22T00:16:20.925Z,42.50
2023-01-22T00:19:22.714Z,42.70
2023-01-22T00:22:24.230Z,42.50
2023-01-22T00:25:25.441Z,42.50
2023-01-22T00:28:26.794Z,42.60
2023-01-22T00:31:28.132Z,42.50
2023-01-22T00:34:30.248Z,42.80
2023-01-22T00:37:32.254Z,42.70
2023-01-22T00:40:33.533Z,42.80
2023-01-22T00:43:37.697Z,42.60
2023-01-22T00:46:38.969Z,42.40
2023-01-22T00:49:40.779Z,42.70
2023-01-22T00:52:42.188Z,42.50
2023-01-22T00:55:49.836Z,42.50
2023-01-22T00:58:51.108Z,42.30
2023-01-22T01:01:52.562Z,42.70
2023-01-22T01:04:55.828Z,42.90
2023-01-22T01:07:58.279Z,42.60
2023-01-22T01:11:00.592Z,42.60
2023-01-22T01:14:01.895Z,42.50
2023-01-22T01:17:03.168Z,42.60
2023-01-22T01:20:05.310Z,42.50
2023-01-22T01:23:06.737Z,42.40
2023-01-22T01:26:09.642Z,42.50
2023-01-22T01:29:13.106Z,42.70
2023-01-22T01:32:14.386Z,42.50
2023-01-22T01:35:16.217Z,42.70
2023-01-22T01:38:17.451Z,42.40
2023-01-22T01:41:19.999Z,42.50
2023-01-22T01:44:22.161Z,42.40
2023-01-22T01:47:29.632Z,42.30
2023-01-22T01:50:31.551Z,42.40
2023-01-22T01:53:33.243Z,42.50
2023-01-22T01:56:37.018Z,42.40
2023-01-22T01:59:38.613Z,42.60
2023-01-22T02:02:40.581Z,42.50
2023-01-22T02:05:42.644Z,42.30
2023-01-22T02:08:44.900Z,42.50
2023-01-22T02:11:46.602Z,42.30
2023-01-22T02:14:48.138Z,42.60
2023-01-22T02:17:49.364Z,41.50
2023-01-22T02:20:52.010Z,42.30
2023-01-22T02:23:53.420Z,42.00
2023-01-22T02:26:55.718Z,42.20
2023-01-22T02:29:57.008Z,42.50
2023-01-22T02:32:58.274Z,42.20
2023-01-22T02:36:00.151Z,42.30
2023-01-22T02:39:01.653Z,42.10
2023-01-22T02:42:03.640Z,42.20
2023-01-22T02:45:06.488Z,42.10
2023-01-22T02:48:07.842Z,42.00
2023-01-22T02:51:10.541Z,42.20
2023-01-22T02:54:12.144Z,42.00
2023-01-22T02:57:13.482Z,42.10
2023-01-22T03:00:15.340Z,42.40
2023-01-22T03:03:17.398Z,42.20
2023-01-22T03:06:20.661Z,42.00
2023-01-22T03:09:21.879Z,42.10
2023-01-22T03:12:25.053Z,42.00
2023-01-22T03:15:39.588Z,42.20
2023-01-22T03:18:55.729Z,42.00
2023-01-22T03:21:57.548Z,42.10
2023-01-22T03:25:00.732Z,42.20
2023-01-22T03:28:17.784Z,42.00
2023-01-22T03:31:25.026Z,42.40
2023-01-22T03:34:26.474Z,42.10
2023-01-22T03:37:31.282Z,42.40
2023-01-22T03:40:32.984Z,42.10
2023-01-22T03:43:35.033Z,42.10
2023-01-22T03:46:40.085Z,42.10
2023-01-22T03:49:42.194Z,42.00
2023-01-22T03:52:45.227Z,42.20
2023-01-22T03:55:46.662Z,42.00
2023-01-22T03:58:48.842Z,42.20
2023-01-22T04:01:51.798Z,42.30
2023-01-22T04:04:53.729Z,42.10
2023-01-22T04:07:55.577Z,42.00
2023-01-22T04:11:01.116Z,42.10
2023-01-22T04:14:03.062Z,42.00
2023-01-22T04:17:06.978Z,42.30
2023-01-22T04:20:24.370Z,42.10
2023-01-22T04:23:43.238Z,42.10
2023-01-22T04:26:45.565Z,42.00
2023-01-22T04:29:48.939Z,42.00
2023-01-22T04:32:50.489Z,42.20
2023-01-22T04:36:06.042Z,42.20
2023-01-22T04:39:07.851Z,41.90
2023-01-22T04:42:09.899Z,42.10
2023-01-22T04:45:11.366Z,41.70
2023-01-22T04:48:13.250Z,42.00
2023-01-22T04:51:17.252Z,41.90
2023-01-22T04:54:20.130Z,42.10
2023-01-22T04:57:21.863Z,42.10
2023-01-22T05:00:25.447Z,42.20
2023-01-22T05:03:26.941Z,42.20
2023-01-22T05:06:28.991Z,42.00
2023-01-22T05:09:31.090Z,41.80
2023-01-22T05:12:34.334Z,41.90
2023-01-22T05:15:36.668Z,41.80
2023-01-22T05:18:42.621Z,41.90
2023-01-22T05:21:43.898Z,42.00
2023-01-22T05:24:48.084Z,42.10
2023-01-22T05:27:49.985Z,41.90
2023-01-22T05:31:03.984Z,41.80
2023-01-22T05:34:08.837Z,42.20
2023-01-22T05:37:10.174Z,41.90
2023-01-22T05:40:12.826Z,41.80
2023-01-22T05:43:14.150Z,41.60
2023-01-22T05:46:20.134Z,41.80
2023-01-22T05:49:41.347Z,42.00
2023-01-22T05:52:45.700Z,41.70
2023-01-22T05:55:48.536Z,41.80
2023-01-22T05:58:50.456Z,41.70
2023-01-22T06:01:52.744Z,41.70
2023-01-22T06:04:54.393Z,42.10
2023-01-22T06:07:59.558Z,41.80
2023-01-22T06:11:06.039Z,41.80
2023-01-22T06:14:07.897Z,41.90
2023-01-22T06:17:09.333Z,41.80
2023-01-22T06:20:13.209Z,41.80
2023-01-22T06:23:15.094Z,41.70
2023-01-22T06:26:16.999Z,41.60
2023-01-22T06:29:18.609Z,41.90
2023-01-22T06:32:20.479Z,41.50
2023-01-22T06:35:22.067Z,41.70
2023-01-22T06:38:24.712Z,41.50
2023-01-22T06:41:26.511Z,42.00
2023-01-22T06:44:32.590Z,41.60
2023-01-22T06:47:33.919Z,42.10
2023-01-22T06:50:36.991Z,41.80
2023-01-22T06:53:38.495Z,41.60
2023-01-22T06:56:40.356Z,41.70
2023-01-22T06:59:41.961Z,41.60
2023-01-22T07:02:43.303Z,41.80
2023-01-22T07:05:44.714Z,41.60
2023-01-22T07:08:46.074Z,41.90
2023-01-22T07:11:48.086Z,41.80
2023-01-22T07:14:49.284Z,41.60
2023-01-22T07:17:51.248Z,41.50
2023-01-22T07:20:53.181Z,41.30
2023-01-22T07:23:54.415Z,41.50
2023-01-22T07:26:56.253Z,41.70
2023-01-22T07:29:57.756Z,41.40
2023-01-22T07:32:59.368Z,41.50
2023-01-22T07:36:00.604Z,41.20
2023-01-22T07:39:03.188Z,41.30
2023-01-22T07:42:05.023Z,41.40
2023-01-22T07:45:06.712Z,41.20
2023-01-22T07:48:09.958Z,41.20
2023-01-22T07:51:11.829Z,41.30
2023-01-22T07:54:13.082Z,41.60
2023-01-22T07:57:15.879Z,41.20
2023-01-22T08:00:17.960Z,41.20
2023-01-22T08:03:19.486Z,41.10
2023-01-22T08:06:20.791Z,41.30
2023-01-22T08:09:24.858Z,41.20
2023-01-22T08:12:26.824Z,40.90
2023-01-22T08:15:28.065Z,41.20
2023-01-22T08:18:29.294Z,41.40
2023-01-22T08:21:31.665Z,41.00
2023-01-22T08:24:33.833Z,41.20
2023-01-22T08:27:35.790Z,41.00
2023-01-22T08:30:45.454Z,41.40
2023-01-22T08:33:47.497Z,41.00
2023-01-22T08:36:48.732Z,41.20
2023-01-22T08:39:50.004Z,40.90
2023-01-22T08:42:52.035Z,41.10
2023-01-22T08:45:53.399Z,41.10
2023-01-22T08:48:54.667Z,41.00
2023-01-22T08:51:56.164Z,40.70
2023-01-22T08:54:57.414Z,41.10
2023-01-22T08:57:59.216Z,40.90
2023-01-22T09:01:00.748Z,40.90
2023-01-22T09:04:04.665Z,40.90
2023-01-22T09:07:05.937Z,41.00
2023-01-22T09:10:09.968Z,40.80
2023-01-22T09:13:11.761Z,40.60
2023-01-22T09:16:13.061Z,40.70
2023-01-22T09:19:14.359Z,41.10
2023-01-22T09:22:15.648Z,40.30
2023-01-22T09:25:16.899Z,40.80
2023-01-22T09:28:18.760Z,40.80
2023-01-22T09:31:20.210Z,41.00
2023-01-22T09:34:21.594Z,40.80
2023-01-22T09:37:24.377Z,40.90
2023-01-22T09:40:26.637Z,40.70
2023-01-22T09:43:30.475Z,40.90
2023-01-22T09:46:36.101Z,40.40
2023-01-22T09:49:38.454Z,40.80
2023-01-22T09:52:40.418Z,40.30
2023-01-22T09:55:44.073Z,41.10
2023-01-22T09:58:48.799Z,40.30
2023-01-22T10:01:51.960Z,40.80
2023-01-22T10:04:56.190Z,40.40
2023-01-22T10:08:00.025Z,40.80
2023-01-22T10:11:02.641Z,40.50
2023-01-22T10:14:06.559Z,40.70
2023-01-22T10:17:12.994Z,40.30
2023-01-22T10:20:15.342Z,40.70
2023-01-22T10:23:18.598Z,40.30
2023-01-22T10:26:24.206Z,40.60
2023-01-22T10:29:29.880Z,40.50
2023-01-22T10:32:31.989Z,40.60
2023-01-22T10:35:41.987Z,40.30
2023-01-22T10:38:43.317Z,40.50
2023-01-22T10:41:45.767Z,40.20
2023-01-22T10:44:48.893Z,40.30
2023-01-22T10:47:50.163Z,40.30
2023-01-22T10:50:59.452Z,40.60
2023-01-22T10:54:00.985Z,40.30
2023-01-22T10:57:03.813Z,40.80
2023-01-22T11:00:19.348Z,40.10
2023-01-22T11:03:22.057Z,40.60
2023-01-22T11:06:25.994Z,40.20
2023-01-22T11:09:31.241Z,40.30
2023-01-22T11:12:34.004Z,40.20
2023-01-22T11:15:39.926Z,40.20
2023-01-22T11:18:43.126Z,40.10
2023-01-22T11:21:45.920Z,40.30
2023-01-22T11:24:47.661Z,40.10
2023-01-22T11:27:54.358Z,40.20
2023-01-22T11:31:02.680Z,40.00
2023-01-22T11:34:09.991Z,40.30
2023-01-22T11:37:13.026Z,40.00
2023-01-22T11:40:18.212Z,40.20
2023-01-22T11:43:25.595Z,40.00
2023-01-22T11:46:34.509Z,40.40
2023-01-22T11:49:46.675Z,40.00
2023-01-22T11:52:52.579Z,40.30
2023-01-22T11:56:00.988Z,40.00
2023-01-22T11:59:03.800Z,40.40
2023-01-22T12:02:13.478Z,40.00
2023-01-22T12:05:18.178Z,40.20
2023-01-22T12:08:27.252Z,40.10
2023-01-22T12:11:32.880Z,40.40
2023-01-22T12:14:38.836Z,40.10
2023-01-22T12:17:45.064Z,40.10
2023-01-22T12:21:04.403Z,40.00
2023-01-22T12:24:08.704Z,40.40
2023-01-22T12:27:21.944Z,40.10
2023-01-22T12:30:26.063Z,40.30
2023-01-22T12:33:29.103Z,40.00
2023-01-22T12:36:31.930Z,40.50
2023-01-22T12:39:34.892Z,40.10
2023-01-22T12:42:39.081Z,40.10
2023-01-22T12:45:51.656Z,40.00
2023-01-22T12:48:56.981Z,40.10
2023-01-22T12:51:59.088Z,40.00
2023-01-22T12:55:01.231Z,40.00
2023-01-22T12:58:03.393Z,40.20
2023-01-22T13:01:06.401Z,40.40
2023-01-22T13:04:11.233Z,39.80
2023-01-22T13:07:19.930Z,39.90
2023-01-22T13:10:23.957Z,40.00
2023-01-22T13:13:28.369Z,40.40
2023-01-22T13:16:31.657Z,40.00
2023-01-22T13:19:38.123Z,40.40
2023-01-22T13:22:41.451Z,39.80
2023-01-22T13:25:42.715Z,40.40
2023-01-22T13:28:49.374Z,39.90
2023-01-22T13:31:51.479Z,40.20
2023-01-22T13:35:01.677Z,39.90
2023-01-22T13:38:03.270Z,40.10
2023-01-22T13:41:07.338Z,39.80
2023-01-22T13:44:14.462Z,40.40
2023-01-22T13:47:24.551Z,39.80
2023-01-22T13:50:28.237Z,40.40
2023-01-22T13:53:30.755Z,40.10
2023-01-22T13:56:32.272Z,40.40
2023-01-22T13:59:34.476Z,40.10
2023-01-22T14:02:35.758Z,40.20
2023-01-22T14:05:37.889Z,40.10
2023-01-22T14:08:47.577Z,40.40
2023-01-22T14:11:50.129Z,39.80
2023-01-22T14:14:51.813Z,40.50
2023-01-22T14:17:53.124Z,40.00
2023-01-22T14:20:54.972Z,40.40
2023-01-22T14:23:56.235Z,40.10
2023-01-22T14:26:57.491Z,40.50
2023-01-22T14:29:58.788Z,40.10
2023-01-22T14:33:00.325Z,40.00
2023-01-22T14:36:02.320Z,39.90
2023-01-22T14:39:06.452Z,40.60
2023-01-22T14:42:08.134Z,39.60
2023-01-22T14:45:10.989Z,40.40
2023-01-22T14:48:12.744Z,39.90
2023-01-22T14:51:14.634Z,40.10
2023-01-22T14:54:15.890Z,40.00
2023-01-22T14:57:17.157Z,40.30
2023-01-22T15:00:19.458Z,39.80
2023-01-22T15:03:20.959Z,40.30
2023-01-22T15:06:23.307Z,40.00
2023-01-22T15:09:24.758Z,40.40
2023-01-22T15:12:26.325Z,40.20
2023-01-22T15:15:27.598Z,40.50
2023-01-22T15:18:28.918Z,39.90
2023-01-22T15:21:30.787Z,39.90
2023-01-22T15:24:32.015Z,40.10
2023-01-22T15:27:33.336Z,40.60
2023-01-22T15:30:34.627Z,40.00
2023-01-22T15:33:36.655Z,40.50
2023-01-22T15:36:39.125Z,40.00
2023-01-22T15:39:41.000Z,40.40
2023-01-22T15:42:42.303Z,40.00
2023-01-22T15:45:43.546Z,40.50
2023-01-22T15:48:44.847Z,40.30
2023-01-22T15:51:46.715Z,40.50
2023-01-22T15:54:48.081Z,40.40
2023-01-22T15:57:49.328Z,40.50
2023-01-22T16:00:50.567Z,40.00
2023-01-22T16:03:52.504Z,40.70
2023-01-22T16:06:54.372Z,40.10
2023-01-22T16:09:55.788Z,39.80
2023-01-22T16:12:57.090Z,40.10
2023-01-22T16:15:58.777Z,40.40
2023-01-22T16:19:01.137Z,40.20
2023-01-22T16:22:02.996Z,40.60
2023-01-22T16:25:04.508Z,40.30
2023-01-22T16:28:05.820Z,40.60
2023-01-22T16:31:08.958Z,40.10
2023-01-22T16:34:11.438Z,40.50
2023-01-22T16:37:13.274Z,40.10
2023-01-22T16:40:14.879Z,40.30
2023-01-22T16:43:16.186Z,40.00
2023-01-22T16:46:19.370Z,41.50
2023-01-22T16:49:21.628Z,40.50
2023-01-22T16:52:23.424Z,40.50
2023-01-22T16:55:24.654Z,40.50
2023-01-22T16:58:25.913Z,40.90
2023-01-22T17:01:27.954Z,40.30
2023-01-22T17:04:30.305Z,40.70
2023-01-22T17:07:34.218Z,40.50
2023-01-22T17:10:36.577Z,41.20
2023-01-22T17:13:37.897Z,40.30
2023-01-22T17:16:39.194Z,41.00
2023-01-22T17:19:40.450Z,40.30
2023-01-22T17:22:42.320Z,40.70
2023-01-22T17:25:43.674Z,40.50
2023-01-22T17:28:45.305Z,41.20
2023-01-22T17:31:47.658Z,40.50
2023-01-22T17:34:49.018Z,41.10
2023-01-22T17:37:51.005Z,40.60
2023-01-22T17:40:52.480Z,40.10
2023-01-22T17:43:55.188Z,40.50
2023-01-22T17:46:59.112Z,41.20
2023-01-22T17:50:00.347Z,40.80
2023-01-22T17:53:02.163Z,41.10
2023-01-22T17:56:04.428Z,40.80
2023-01-22T17:59:06.062Z,41.00
2023-01-22T18:02:07.291Z,40.70
2023-01-22T18:05:10.408Z,41.20
2023-01-22T18:08:12.475Z,40.70
2023-01-22T18:11:15.341Z,41.20
2023-01-22T18:14:21.295Z,41.00
2023-01-22T18:17:22.532Z,41.10
2023-01-22T18:20:24.921Z,40.90
2023-01-22T18:23:26.769Z,41.10
2023-01-22T18:26:28.397Z,40.90
2023-01-22T18:29:29.602Z,41.20
2023-01-22T18:32:30.895Z,41.00
2023-01-22T18:35:33.802Z,41.30
2023-01-22T18:38:36.462Z,41.70
2023-01-22T18:41:39.279Z,41.30
2023-01-22T18:44:40.649Z,40.60
2023-01-22T18:47:41.883Z,41.60
2023-01-22T18:50:49.992Z,41.00
2023-01-22T18:53:51.961Z,41.00
2023-01-22T18:56:53.304Z,41.10
2023-01-22T18:59:54.582Z,41.60
2023-01-22T19:02:56.931Z,41.20
2023-01-22T19:05:58.987Z,41.30
2023-01-22T19:09:02.903Z,40.80
2023-01-22T19:12:06.597Z,41.50
2023-01-22T19:15:09.039Z,41.20
2023-01-22T19:18:10.327Z,41.10
2023-01-22T19:21:12.524Z,41.20
2023-01-22T19:24:15.274Z,41.30
2023-01-22T19:27:17.622Z,41.20
2023-01-22T19:30:18.910Z,41.30
2023-01-22T19:33:25.231Z,41.30
2023-01-22T19:36:27.619Z,41.70
2023-01-22T19:39:29.520Z,41.10
2023-01-22T19:42:31.195Z,41.30
2023-01-22T19:45:35.135Z,41.00
2023-01-22T19:48:37.809Z,41.50
2023-01-22T19:51:39.557Z,41.20
2023-01-22T19:54:46.526Z,41.50
2023-01-22T19:57:47.772Z,41.50
2023-01-22T20:00:49.408Z,41.40
2023-01-22T20:03:50.730Z,41.20
2023-01-22T20:06:54.988Z,41.80
2023-01-22T20:09:56.824Z,41.20
2023-01-22T20:12:58.211Z,41.40
2023-01-22T20:16:00.288Z,41.30
2023-01-22T20:19:01.596Z,41.70
2023-01-22T20:22:06.400Z,41.30
2023-01-22T20:25:09.210Z,41.30
2023-01-22T20:28:12.632Z,41.30
2023-01-22T20:31:14.976Z,41.90
2023-01-22T20:34:16.306Z,41.40
2023-01-22T20:37:17.627Z,41.50
2023-01-22T20:40:19.519Z,41.50
2023-01-22T20:43:20.961Z,41.70
2023-01-22T20:46:23.943Z,41.60
2023-01-22T20:49:26.241Z,41.50
2023-01-22T20:52:27.486Z,41.50
2023-01-22T20:55:29.268Z,42.10
2023-01-22T20:58:30.941Z,41.50
2023-01-22T21:01:32.295Z,41.70
2023-01-22T21:04:33.643Z,41.30
2023-01-22T21:07:34.851Z,42.30
2023-01-22T21:10:36.826Z,41.90
2023-01-22T21:13:38.391Z,41.60
2023-01-22T21:16:39.744Z,41.90
2023-01-22T21:19:43.470Z,42.30
2023-01-22T21:22:46.487Z,42.00
2023-01-22T21:25:48.294Z,41.80
2023-01-22T21:28:50.482Z,41.80
2023-01-22T21:31:53.228Z,41.90
2023-01-22T21:34:54.543Z,41.70
2023-01-22T21:37:55.825Z,42.20
2023-01-22T21:41:05.152Z,41.50
2023-01-22T21:44:21.181Z,42.00
2023-01-22T21:47:22.542Z,41.60
2023-01-22T21:50:23.793Z,41.90
2023-01-22T21:53:25.227Z,41.30
2023-01-22T21:56:27.023Z,41.90
2023-01-22T21:59:28.303Z,41.70
2023-01-22T22:02:29.601Z,41.80
2023-01-22T22:05:31.083Z,41.70
2023-01-22T22:08:34.704Z,42.10
2023-01-22T22:11:36.534Z,41.80
2023-01-22T22:14:37.921Z,41.70
2023-01-22T22:17:39.302Z,41.70
2023-01-22T22:20:40.567Z,41.70
2023-01-22T22:23:42.090Z,41.80
2023-01-22T22:26:43.879Z,42.00
2023-01-22T22:29:45.157Z,41.70
2023-01-22T22:32:46.391Z,42.10
2023-01-22T22:35:47.785Z,41.90
2023-01-22T22:38:49.425Z,41.80
2023-01-22T22:41:51.282Z,41.80
2023-01-22T22:44:52.574Z,42.30
2023-01-22T22:47:53.943Z,41.70
2023-01-22T22:50:55.225Z,41.80
2023-01-22T22:53:58.315Z,41.80
2023-01-22T22:57:00.131Z,41.90
2023-01-22T23:00:03.607Z,41.90
2023-01-22T23:03:04.847Z,41.70
2023-01-22T23:06:07.791Z,41.90
2023-01-22T23:09:09.532Z,41.70
2023-01-22T23:12:11.379Z,41.80
2023-01-22T23:15:12.671Z,41.90
2023-01-22T23:18:14.007Z,41.90
2023-01-22T23:21:16.590Z,42.00
2023-01-22T23:24:17.874Z,41.80
2023-01-22T23:27:19.663Z,42.30
2023-01-22T23:30:21.203Z,42.00
2023-01-22T23:33:22.619Z,42.00
2023-01-22T23:36:25.177Z,42.30
2023-01-22T23:39:26.436Z,42.10
2023-01-22T23:42:28.235Z,42.10
2023-01-22T23:45:29.572Z,41.90
2023-01-22T23:48:30.919Z,42.10
2023-01-22T23:51:32.135Z,42.50
2023-01-22T23:54:33.569Z,42.10
2023-01-22T23:57:35.334Z,41.80
